Time;durP1;ratioP1;P1;durP2;ratioP2;P2;SDS_P1;SDS_P2;PMS_P1;PMS_P2;Temp;Humidity;BMP_temperature;BMP_pressure;BME280_temperature;BME280_humidity;BME280_pressure;Samples;Min_cycle;Max_cycle;Signal;HPM_P1;HPM_P2
2023/10/03 00:15:30;;;;;;;35.97;17.23;;;;;;;;;;5110446;27;20214;-78
2023/10/03 00:17:57;;;;;;;31.10;16.73;;;;;;;;;;5100849;27;20705;-76
2023/10/03 00:23:47;;;;;;;33.42;17.92;;;;;;;;;;5107657;27;20246;-76
2023/10/03 00:26:19;;;;;;;34.88;17.20;;;;;;;;;;5108471;28;20226;-77
2023/10/03 00:28:48;;;;;;;32.55;17.02;;;;;;;;;;5104714;27;20228;-77
2023/10/03 00:31:15;;;;;;;30.92;16.17;;;;;;;;;;5114970;27;20224;-76
2023/10/03 00:33:43;;;;;;;35.45;17.00;;;;;;;;;;5121350;27;20240;-79
2023/10/03 00:36:16;;;;;;;32.22;17.42;;;;;;;;;;5110098;27;20242;-75
2023/10/03 00:38:43;;;;;;;32.42;17.10;;;;;;;;;;5111581;27;20207;-75
2023/10/03 00:41:12;;;;;;;33.38;16.52;;;;;;;;;;5110565;27;20206;-77
2023/10/03 00:43:58;;;;;;;30.13;16.25;;;;;;;;;;5099970;27;20591;-77
2023/10/03 00:46:27;;;;;;;31.88;16.65;;;;;;;;;;5113780;27;20298;-77
2023/10/03 00:48:54;;;;;;;32.22;17.65;;;;;;;;;;5112826;27;20237;-75
2023/10/03 00:51:23;;;;;;;33.63;17.13;;;;;;;;;;5119951;27;20196;-76
2023/10/03 00:53:55;;;;;;;30.58;15.88;;;;;;;;;;5121081;27;20205;-76
2023/10/03 00:56:23;;;;;;;34.53;16.75;;;;;;;;;;5092862;28;20232;-76
2023/10/03 00:58:51;;;;;;;31.33;16.65;;;;;;;;;;5104618;28;20242;-76
2023/10/03 01:01:19;;;;;;;33.63;16.25;;;;;;;;;;5086161;28;20769;-77
2023/10/03 01:03:47;;;;;;;29.02;15.85;;;;;;;;;;5087394;28;20239;-76
2023/10/03 01:06:15;;;;;;;28.73;15.23;;;;;;;;;;5094870;28;20239;-76
2023/10/03 01:08:47;;;;;;;29.77;15.70;;;;;;;;;;5090879;28;20245;-77
2023/10/03 01:11:15;;;;;;;29.63;14.77;;;;;;;;;;5090870;28;20208;-76
2023/10/03 01:13:47;;;;;;;30.08;15.75;;;;;;;;;;5091645;28;20250;-75
2023/10/03 01:16:27;;;;;;;29.10;14.80;;;;;;;;;;5086868;28;20225;-76
2023/10/03 01:18:58;;;;;;;28.90;14.57;;;;;;;;;;5092456;28;20295;-76
2023/10/03 01:21:26;;;;;;;31.55;15.15;;;;;;;;;;5088781;28;20202;-77
2023/10/03 01:23:54;;;;;;;25.80;14.20;;;;;;;;;;5090317;28;20235;-74
2023/10/03 01:26:46;;;;;;;28.80;14.45;;;;;;;;;;5090337;28;20231;-74
2023/10/03 01:29:15;;;;;;;26.85;14.93;;;;;;;;;;5093223;28;20298;-77
2023/10/03 01:31:42;;;;;;;31.20;15.75;;;;;;;;;;5096327;28;20207;-76
2023/10/03 01:34:10;;;;;;;25.10;14.10;;;;;;;;;;5103879;28;20843;-74
2023/10/03 01:36:39;;;;;;;26.95;14.68;;;;;;;;;;5086462;28;20262;-74
2023/10/03 01:39:07;;;;;;;31.58;15.52;;;;;;;;;;5077328;28;20204;-74
2023/10/03 01:41:34;;;;;;;27.75;14.82;;;;;;;;;;5073615;28;20211;-77
2023/10/03 01:44:02;;;;;;;27.08;14.38;;;;;;;;;;5073433;28;20220;-74
2023/10/03 01:46:29;;;;;;;25.95;14.65;;;;;;;;;;5091367;27;20240;-75
2023/10/03 01:48:57;;;;;;;27.52;14.27;;;;;;;;;;5092742;28;20228;-77
2023/10/03 01:51:24;;;;;;;26.52;13.80;;;;;;;;;;5096026;27;20197;-75
2023/10/03 01:53:52;;;;;;;28.65;14.85;;;;;;;;;;5094813;28;20623;-75
2023/10/03 01:56:19;;;;;;;29.23;14.35;;;;;;;;;;5093841;27;20220;-76
2023/10/03 01:58:47;;;;;;;28.52;14.73;;;;;;;;;;5071164;28;20216;-75
2023/10/03 02:01:14;;;;;;;29.55;15.43;;;;;;;;;;5091909;27;20201;-74
2023/10/03 02:03:42;;;;;;;29.88;14.23;;;;;;;;;;5072088;28;20199;-75
2023/10/03 02:06:09;;;;;;;27.63;14.30;;;;;;;;;;5084587;28;20224;-75
2023/10/03 02:08:37;;;;;;;25.83;14.07;;;;;;;;;;5080653;27;20209;-76
2023/10/03 02:11:06;;;;;;;26.98;14.43;;;;;;;;;;5093741;28;20216;-75
2023/10/03 02:13:34;;;;;;;27.75;14.80;;;;;;;;;;5073365;28;20207;-75
2023/10/03 02:16:02;;;;;;;27.60;14.00;;;;;;;;;;5063838;28;20704;-75
2023/10/03 02:18:30;;;;;;;28.40;14.98;;;;;;;;;;5095174;28;20212;-77
2023/10/03 02:21:01;;;;;;;30.45;15.35;;;;;;;;;;5082134;27;20641;-76
2023/10/03 02:23:30;;;;;;;27.05;14.45;;;;;;;;;;5091714;27;20212;-76
2023/10/03 02:25:58;;;;;;;24.52;13.85;;;;;;;;;;5078989;28;20237;-76
2023/10/03 02:28:26;;;;;;;27.52;14.52;;;;;;;;;;5093409;28;20205;-76
2023/10/03 02:30:57;;;;;;;29.13;14.40;;;;;;;;;;5077971;28;20205;-76
2023/10/03 02:33:24;;;;;;;28.25;14.50;;;;;;;;;;5099838;27;20221;-76
2023/10/03 02:35:52;;;;;;;28.15;14.80;;;;;;;;;;5101650;28;20219;-76
2023/10/03 02:38:29;;;;;;;28.48;15.05;;;;;;;;;;5090084;27;20197;-75
2023/10/03 02:40:57;;;;;;;27.10;14.63;;;;;;;;;;5090656;27;20732;-76
2023/10/03 02:43:26;;;;;;;28.63;14.73;;;;;;;;;;5097635;28;20200;-75
2023/10/03 02:45:53;;;;;;;28.55;15.15;;;;;;;;;;5099939;28;20232;-76
2023/10/03 02:48:21;;;;;;;25.40;14.48;;;;;;;;;;5097545;27;20197;-76
2023/10/03 02:50:50;;;;;;;27.95;14.80;;;;;;;;;;5089816;28;20325;-76
2023/10/03 02:53:21;;;;;;;29.08;14.75;;;;;;;;;;5077487;28;20257;-75
2023/10/03 02:55:49;;;;;;;28.92;14.73;;;;;;;;;;5078184;27;20706;-75
2023/10/03 02:58:22;;;;;;;29.45;14.82;;;;;;;;;;5087172;28;20205;-75
2023/10/03 03:00:53;;;;;;;25.85;13.98;;;;;;;;;;5097894;27;20197;-76
2023/10/03 03:03:23;;;;;;;28.88;15.43;;;;;;;;;;5097180;28;20204;-75
2023/10/03 03:05:50;;;;;;;27.27;14.40;;;;;;;;;;5084856;27;20692;-77
2023/10/03 03:10:49;;;;;;;29.73;15.75;;;;;;;;;;5103216;28;20209;-75
2023/10/03 03:13:16;;;;;;;29.95;15.50;;;;;;;;;;5103022;27;20203;-78
2023/10/03 03:15:59;;;;;;;30.92;15.13;;;;;;;;;;5101839;28;20321;-78
2023/10/03 03:18:31;;;;;;;24.45;13.68;;;;;;;;;;5097905;27;20266;-79
2023/10/03 03:21:07;;;;;;;25.63;14.13;;;;;;;;;;5099434;27;20746;-78
2023/10/03 03:23:39;;;;;;;27.90;14.73;;;;;;;;;;5086085;27;20238;-77
2023/10/03 03:26:20;;;;;;;26.50;14.43;;;;;;;;;;5096807;28;20228;-77
2023/10/03 03:28:51;;;;;;;24.63;13.57;;;;;;;;;;5093291;28;20231;-78
2023/10/03 03:31:22;;;;;;;28.75;14.90;;;;;;;;;;5092362;27;20208;-78
2023/10/03 03:33:51;;;;;;;26.10;14.25;;;;;;;;;;5079800;28;20196;-75
2023/10/03 03:36:21;;;;;;;25.60;13.05;;;;;;;;;;5098578;27;20688;-80
2023/10/03 03:42:12;;;;;;;29.75;14.50;;;;;;;;;;5093421;28;20277;-80
2023/10/03 03:44:40;;;;;;;25.10;13.85;;;;;;;;;;5089436;28;20224;-82
2023/10/03 03:47:07;;;;;;;27.33;14.65;;;;;;;;;;5077014;28;20249;-80
2023/10/03 03:49:39;;;;;;;27.42;14.13;;;;;;;;;;5077727;28;20211;-80
2023/10/03 03:52:09;;;;;;;28.05;14.98;;;;;;;;;;5088762;28;20207;-79
2023/10/03 03:54:36;;;;;;;24.70;13.88;;;;;;;;;;5080145;28;20201;-79
2023/10/03 03:57:05;;;;;;;28.08;15.23;;;;;;;;;;5085581;28;20655;-79
2023/10/03 03:59:33;;;;;;;25.98;14.43;;;;;;;;;;5093089;28;20611;-79
2023/10/03 04:02:00;;;;;;;24.73;14.73;;;;;;;;;;5088762;28;20208;-78
2023/10/03 04:04:27;;;;;;;27.45;15.05;;;;;;;;;;5092735;27;20224;-80
2023/10/03 04:06:55;;;;;;;27.42;15.05;;;;;;;;;;5090367;28;20715;-80
2023/10/03 04:09:22;;;;;;;27.67;15.18;;;;;;;;;;5093064;28;20207;-81
2023/10/03 04:11:50;;;;;;;24.90;13.70;;;;;;;;;;5091779;28;20201;-80
2023/10/03 04:14:17;;;;;;;26.65;14.68;;;;;;;;;;5082981;28;20668;-80
2023/10/03 04:16:44;;;;;;;26.33;14.27;;;;;;;;;;5091103;27;20223;-79
2023/10/03 04:19:12;;;;;;;31.63;15.80;;;;;;;;;;5095190;28;20196;-79
2023/10/03 04:21:40;;;;;;;28.05;15.02;;;;;;;;;;5091917;28;20201;-79
2023/10/03 04:24:15;;;;;;;28.77;14.57;;;;;;;;;;5092385;28;20791;-79
2023/10/03 04:26:42;;;;;;;26.17;14.63;;;;;;;;;;5096883;28;20220;-79
2023/10/03 04:29:13;;;;;;;24.95;13.50;;;;;;;;;;5093994;28;20211;-79
2023/10/03 04:31:42;;;;;;;25.88;14.57;;;;;;;;;;5088944;28;20205;-78
2023/10/03 04:34:11;;;;;;;31.65;15.32;;;;;;;;;;5089290;28;20297;-78
2023/10/03 04:36:41;;;;;;;24.30;14.18;;;;;;;;;;5093639;27;20216;-81
2023/10/03 04:39:09;;;;;;;23.38;13.65;;;;;;;;;;5077272;28;20291;-80
2023/10/03 04:41:43;;;;;;;25.58;14.07;;;;;;;;;;5090092;28;20200;-80
2023/10/03 04:44:15;;;;;;;26.63;14.38;;;;;;;;;;5084779;28;20931;-79
2023/10/03 04:46:44;;;;;;;29.85;14.60;;;;;;;;;;5097379;28;20227;-80
2023/10/03 04:49:11;;;;;;;24.75;14.60;;;;;;;;;;5078305;28;20212;-81
2023/10/03 04:51:39;;;;;;;26.95;13.88;;;;;;;;;;5105887;28;20249;-80
2023/10/03 04:54:06;;;;;;;25.63;13.38;;;;;;;;;;5099913;28;20204;-81
2023/10/03 04:56:34;;;;;;;26.20;14.38;;;;;;;;;;5102977;28;20232;-79
2023/10/03 04:59:02;;;;;;;28.50;14.98;;;;;;;;;;5078842;28;20290;-81
2023/10/03 05:01:30;;;;;;;25.40;14.05;;;;;;;;;;5077372;28;20214;-78
2023/10/03 05:03:57;;;;;;;23.90;13.30;;;;;;;;;;5078211;28;20210;-79
2023/10/03 05:06:25;;;;;;;24.92;13.75;;;;;;;;;;5092391;28;20731;-79
2023/10/03 05:08:52;;;;;;;25.50;12.57;;;;;;;;;;5074748;28;20204;-80
2023/10/03 05:11:20;;;;;;;25.80;14.40;;;;;;;;;;5092866;28;20204;-78
2023/10/03 05:13:48;;;;;;;24.52;13.10;;;;;;;;;;5093887;28;20269;-80
2023/10/03 05:16:15;;;;;;;20.98;12.50;;;;;;;;;;5091163;28;20310;-80
2023/10/03 05:18:42;;;;;;;25.58;14.02;;;;;;;;;;5094983;28;20687;-79
2023/10/03 05:21:10;;;;;;;24.92;13.52;;;;;;;;;;5109872;28;20740;-80
2023/10/03 05:23:37;;;;;;;27.13;13.80;;;;;;;;;;5100084;28;20209;-80
2023/10/03 05:26:06;;;;;;;25.88;14.88;;;;;;;;;;5104224;28;20615;-79
2023/10/03 05:28:38;;;;;;;27.17;15.98;;;;;;;;;;5097912;28;20230;-81
2023/10/03 05:31:12;;;;;;;22.40;12.93;;;;;;;;;;5079371;28;20227;-78
2023/10/03 05:33:41;;;;;;;24.92;13.63;;;;;;;;;;5108914;28;20647;-77
2023/10/03 05:36:14;;;;;;;25.42;13.32;;;;;;;;;;5092636;28;20224;-77
2023/10/03 05:38:42;;;;;;;25.00;13.23;;;;;;;;;;5106012;28;20196;-74
2023/10/03 05:41:18;;;;;;;22.23;13.05;;;;;;;;;;5112088;28;20204;-75
2023/10/03 05:43:45;;;;;;;24.13;12.05;;;;;;;;;;5112090;28;20637;-76
2023/10/03 05:46:12;;;;;;;24.50;12.43;;;;;;;;;;5093591;28;20301;-76
2023/10/03 05:48:39;;;;;;;22.05;12.00;;;;;;;;;;5112039;28;20188;-75
2023/10/03 05:51:07;;;;;;;23.40;12.70;;;;;;;;;;5132251;28;20255;-76
2023/10/03 05:53:34;;;;;;;25.35;12.82;;;;;;;;;;5132347;28;20199;-77
2023/10/03 05:56:04;;;;;;;24.63;12.35;;;;;;;;;;5113770;28;20842;-76
2023/10/03 05:58:32;;;;;;;22.90;12.40;;;;;;;;;;5111360;28;20207;-74
2023/10/03 06:00:59;;;;;;;22.27;12.45;;;;;;;;;;5110978;28;20253;-74
2023/10/03 06:03:27;;;;;;;22.05;12.38;;;;;;;;;;5111327;28;20299;-75
2023/10/03 06:05:55;;;;;;;23.90;13.00;;;;;;;;;;5111403;28;20236;-76
2023/10/03 06:08:22;;;;;;;25.10;12.80;;;;;;;;;;5091200;28;20287;-78
2023/10/03 06:10:49;;;;;;;23.20;12.40;;;;;;;;;;5102747;28;20825;-79
2023/10/03 06:13:16;;;;;;;20.15;11.30;;;;;;;;;;5089928;28;20568;-78
2023/10/03 06:15:44;;;;;;;20.55;11.80;;;;;;;;;;5096781;28;20234;-77
2023/10/03 06:18:11;;;;;;;20.25;11.88;;;;;;;;;;5087755;28;20208;-77
2023/10/03 06:20:39;;;;;;;22.88;11.95;;;;;;;;;;5082186;28;20216;-76
2023/10/03 06:23:06;;;;;;;20.35;11.80;;;;;;;;;;5096594;28;20254;-77
2023/10/03 06:25:33;;;;;;;21.10;11.77;;;;;;;;;;5071603;28;20335;-80
2023/10/03 06:28:01;;;;;;;20.10;11.90;;;;;;;;;;5095184;28;20196;-77
2023/10/03 06:30:28;;;;;;;22.73;12.02;;;;;;;;;;5093992;28;20204;-79
2023/10/03 06:32:56;;;;;;;22.60;12.10;;;;;;;;;;5104855;27;20201;-77
2023/10/03 06:35:23;;;;;;;23.83;12.70;;;;;;;;;;5106949;28;20216;-77
2023/10/03 06:37:51;;;;;;;18.35;11.15;;;;;;;;;;5111668;28;20249;-78
2023/10/03 06:40:18;;;;;;;18.92;11.15;;;;;;;;;;5110697;28;20200;-80
2023/10/03 06:42:45;;;;;;;17.77;10.90;;;;;;;;;;5102127;28;20215;-79
2023/10/03 06:45:13;;;;;;;19.63;11.32;;;;;;;;;;5105228;28;20621;-78
2023/10/03 06:47:41;;;;;;;21.90;11.50;;;;;;;;;;5089605;28;20209;-76
2023/10/03 06:50:09;;;;;;;21.20;11.23;;;;;;;;;;5098326;28;20292;-76
2023/10/03 06:52:36;;;;;;;19.80;11.43;;;;;;;;;;5085297;28;20200;-76
2023/10/03 06:55:04;;;;;;;18.55;10.70;;;;;;;;;;5086874;28;20242;-76
2023/10/03 06:57:32;;;;;;;18.65;10.23;;;;;;;;;;5099059;28;20204;-75
2023/10/03 07:00:00;;;;;;;17.58;10.75;;;;;;;;;;5097038;28;20201;-76
2023/10/03 07:02:27;;;;;;;17.02;10.48;;;;;;;;;;5079142;28;20197;-77
2023/10/03 07:04:55;;;;;;;20.25;11.10;;;;;;;;;;5099989;28;20304;-76
2023/10/03 07:07:22;;;;;;;18.55;10.88;;;;;;;;;;5097109;28;20600;-74
2023/10/03 07:09:49;;;;;;;17.38;9.68;;;;;;;;;;5094272;28;20200;-74
2023/10/03 07:12:17;;;;;;;15.10;10.02;;;;;;;;;;5088277;28;20215;-77
2023/10/03 07:14:48;;;;;;;17.75;10.25;;;;;;;;;;5110580;27;20242;-77
2023/10/03 07:17:16;;;;;;;18.13;10.43;;;;;;;;;;5131387;27;20603;-75
2023/10/03 07:19:48;;;;;;;20.52;11.45;;;;;;;;;;5113926;28;20204;-75
2023/10/03 07:22:16;;;;;;;17.70;9.88;;;;;;;;;;5113922;28;20231;-75
2023/10/03 07:24:43;;;;;;;19.27;9.40;;;;;;;;;;5113840;28;20717;-75
2023/10/03 07:27:13;;;;;;;17.50;10.07;;;;;;;;;;5104924;27;20232;-74
2023/10/03 07:29:44;;;;;;;17.08;9.80;;;;;;;;;;5108123;27;20227;-76
2023/10/03 07:32:12;;;;;;;16.63;9.63;;;;;;;;;;5101061;27;20304;-77
2023/10/03 07:34:45;;;;;;;16.27;9.43;;;;;;;;;;5102153;28;20208;-75
2023/10/03 07:37:15;;;;;;;18.30;9.60;;;;;;;;;;5096292;27;20672;-75
2023/10/03 07:39:43;;;;;;;15.45;9.05;;;;;;;;;;5100271;28;20591;-76
2023/10/03 07:42:11;;;;;;;16.35;9.63;;;;;;;;;;5099429;28;20670;-76
2023/10/03 07:44:39;;;;;;;14.35;8.90;;;;;;;;;;5102423;27;20208;-76
2023/10/03 07:47:06;;;;;;;18.40;8.75;;;;;;;;;;5105509;27;20269;-76
2023/10/03 07:56:25;;;;;;;12.65;8.07;;;;;;;;;;5030818;28;20578;-76
2023/10/03 07:59:25;;;;;;;12.57;8.18;;;;;;;;;;5091909;27;20201;-76
2023/10/03 08:05:34;;;;;;;14.95;8.10;;;;;;;;;;5045503;28;20287;-75
2023/10/03 08:08:03;;;;;;;14.13;7.82;;;;;;;;;;5103692;27;20214;-75
2023/10/03 08:10:32;;;;;;;12.48;7.75;;;;;;;;;;5099183;27;20273;-76
2023/10/03 08:13:02;;;;;;;13.73;8.05;;;;;;;;;;5110351;27;20261;-76
2023/10/03 08:15:32;;;;;;;16.50;8.50;;;;;;;;;;5079673;28;20248;-77
2023/10/03 08:18:00;;;;;;;11.38;7.70;;;;;;;;;;5105753;27;20855;-76
2023/10/03 08:20:28;;;;;;;13.27;8.25;;;;;;;;;;5104698;28;20251;-76
2023/10/03 08:22:56;;;;;;;12.27;7.78;;;;;;;;;;5101407;27;20196;-78
2023/10/03 08:25:25;;;;;;;14.05;7.57;;;;;;;;;;5093747;28;20224;-76
2023/10/03 08:27:55;;;;;;;13.00;8.00;;;;;;;;;;5105131;27;20201;-74
2023/10/03 08:30:27;;;;;;;11.98;7.80;;;;;;;;;;5099222;27;20227;-74
2023/10/03 08:33:04;;;;;;;13.73;8.18;;;;;;;;;;5112404;27;20224;-77
2023/10/03 08:35:37;;;;;;;13.02;7.70;;;;;;;;;;5092054;28;20318;-76
2023/10/03 08:38:06;;;;;;;9.35;7.18;;;;;;;;;;5100675;27;20193;-76
2023/10/03 08:40:45;;;;;;;13.68;8.23;;;;;;;;;;5087385;28;20220;-76
2023/10/03 08:43:13;;;;;;;12.70;7.47;;;;;;;;;;5107141;27;20199;-76
2023/10/03 08:45:41;;;;;;;10.55;7.22;;;;;;;;;;5085812;27;20223;-75
2023/10/03 08:48:10;;;;;;;14.35;7.65;;;;;;;;;;5094474;28;20685;-75
2023/10/03 08:50:39;;;;;;;12.60;7.57;;;;;;;;;;5085551;27;20212;-76
2023/10/03 08:53:13;;;;;;;11.07;7.50;;;;;;;;;;5101256;28;20208;-76
2023/10/03 08:55:44;;;;;;;11.23;7.22;;;;;;;;;;5098303;27;20218;-76
2023/10/03 08:58:15;;;;;;;10.35;6.65;;;;;;;;;;5092618;28;20203;-77
2023/10/03 09:00:46;;;;;;;14.65;7.30;;;;;;;;;;5102359;28;20207;-76
2023/10/03 09:03:48;;;;;;;11.50;7.30;;;;;;;;;;5110690;27;20192;-75
2023/10/03 09:06:20;;;;;;;9.32;6.40;;;;;;;;;;5110449;27;20313;-76
2023/10/03 09:08:49;;;;;;;11.10;7.82;;;;;;;;;;5097088;27;20953;-75
2023/10/03 09:11:18;;;;;;;9.63;6.95;;;;;;;;;;5086436;28;20235;-74
2023/10/03 09:13:49;;;;;;;11.88;6.85;;;;;;;;;;5104824;28;20655;-75
2023/10/03 09:16:19;;;;;;;11.13;7.15;;;;;;;;;;5106279;27;20426;-75
2023/10/03 09:18:50;;;;;;;11.20;7.15;;;;;;;;;;5078775;28;20204;-79
2023/10/03 09:21:24;;;;;;;11.73;7.43;;;;;;;;;;5090229;28;20204;-76
2023/10/03 09:24:01;;;;;;;10.77;7.00;;;;;;;;;;5092120;28;20219;-78
2023/10/03 09:27:07;;;;;;;11.10;7.88;;;;;;;;;;5085487;28;20238;-77
2023/10/03 09:29:31;;;;;;;10.63;6.80;;;;;;;;;;5089088;28;20258;-77
2023/10/03 09:35:34;;;;;;;10.35;6.78;;;;;;;;;;5084434;28;20298;-77
2023/10/03 09:38:39;;;;;;;12.60;7.35;;;;;;;;;;5078887;28;20211;-77
2023/10/03 09:45:06;;;;;;;11.88;7.15;;;;;;;;;;5102200;28;20610;-75
2023/10/03 09:48:24;;;;;;;12.15;7.07;;;;;;;;;;5092878;28;20555;-77
2023/10/03 09:50:53;;;;;;;10.00;7.30;;;;;;;;;;5092031;28;20650;-75
2023/10/03 09:53:28;;;;;;;11.23;7.43;;;;;;;;;;5092324;28;20212;-75
2023/10/03 09:56:15;;;;;;;11.73;7.35;;;;;;;;;;5083522;28;20255;-77
2023/10/03 09:59:00;;;;;;;11.88;7.63;;;;;;;;;;5095300;28;20212;-75
2023/10/03 10:01:39;;;;;;;12.75;7.82;;;;;;;;;;5091807;28;20212;-76
2023/10/03 10:04:08;;;;;;;14.60;8.68;;;;;;;;;;5080566;28;20196;-77
2023/10/03 10:06:50;;;;;;;13.00;7.95;;;;;;;;;;5087740;28;20229;-75
2023/10/03 10:09:27;;;;;;;11.70;7.93;;;;;;;;;;5078045;27;20216;-78
2023/10/03 10:21:11;;;;;;;11.85;7.45;;;;;;;;;;5100232;27;20201;-76
2023/10/03 10:23:39;;;;;;;9.05;6.40;;;;;;;;;;5096170;27;20683;-76
2023/10/03 10:26:26;;;;;;;8.13;5.63;;;;;;;;;;5099363;28;20234;-76
2023/10/03 10:29:19;;;;;;;7.40;5.25;;;;;;;;;;5101357;28;20196;-78
2023/10/03 10:31:57;;;;;;;7.85;6.07;;;;;;;;;;5094187;27;20273;-75
2023/10/03 10:35:01;;;;;;;8.23;5.47;;;;;;;;;;5102323;28;20273;-77
2023/10/03 10:37:52;;;;;;;8.40;5.30;;;;;;;;;;5088909;28;20208;-76
2023/10/03 10:40:35;;;;;;;8.45;5.82;;;;;;;;;;5082099;28;20215;-75
2023/10/03 10:43:04;;;;;;;6.82;5.50;;;;;;;;;;5097184;27;20275;-76
2023/10/03 10:45:38;;;;;;;8.60;5.20;;;;;;;;;;5096115;27;20226;-76
2023/10/03 10:48:07;;;;;;;7.00;5.35;;;;;;;;;;5090516;28;20227;-76
2023/10/03 10:50:54;;;;;;;7.50;6.07;;;;;;;;;;5100761;27;20200;-75
2023/10/03 10:53:21;;;;;;;9.27;5.90;;;;;;;;;;5098003;28;20213;-78
2023/10/03 10:55:50;;;;;;;6.80;5.30;;;;;;;;;;5101567;27;20223;-77
2023/10/03 10:58:17;;;;;;;8.20;6.20;;;;;;;;;;5096170;27;20262;-76
2023/10/03 11:00:45;;;;;;;8.02;6.05;;;;;;;;;;5098385;28;20238;-76
2023/10/03 11:03:24;;;;;;;8.23;6.30;;;;;;;;;;5105428;27;20197;-75
2023/10/03 11:05:59;;;;;;;9.63;6.10;;;;;;;;;;5107623;27;20258;-74
2023/10/03 11:08:44;;;;;;;7.70;5.90;;;;;;;;;;5085683;28;20200;-76
2023/10/03 11:11:36;;;;;;;8.13;5.70;;;;;;;;;;5089954;28;20743;-81
2023/10/03 11:20:37;;;;;;;9.10;6.25;;;;;;;;;;5107140;27;20188;-75
2023/10/03 11:23:19;;;;;;;10.13;5.70;;;;;;;;;;5070119;28;20218;-78
2023/10/03 11:25:53;;;;;;;8.82;4.90;;;;;;;;;;5080220;28;20213;-78
2023/10/03 11:28:21;;;;;;;7.88;5.13;;;;;;;;;;5080975;28;20231;-76
2023/10/03 11:34:34;;;;;;;7.03;4.82;;;;;;;;;;5097975;28;20246;-78
2023/10/03 11:37:03;;;;;;;7.65;4.68;;;;;;;;;;5096656;27;20204;-78
2023/10/03 11:39:37;;;;;;;6.50;4.80;;;;;;;;;;5102119;28;20293;-77
2023/10/03 11:42:08;;;;;;;8.25;5.50;;;;;;;;;;5096606;28;20208;-76
2023/10/03 11:44:36;;;;;;;7.28;5.53;;;;;;;;;;5097355;27;20250;-76
2023/10/03 11:47:04;;;;;;;14.60;5.80;;;;;;;;;;5096748;27;20592;-76
2023/10/03 11:49:32;;;;;;;8.30;5.38;;;;;;;;;;5098215;28;20739;-76
2023/10/03 11:52:20;;;;;;;7.47;4.95;;;;;;;;;;5085896;27;21189;-77
2023/10/03 11:54:53;;;;;;;5.55;4.28;;;;;;;;;;5094010;27;20268;-76
2023/10/03 13:30:45;;;;;;;7.60;4.10;;;;;;;;;;5079072;28;20373;-82
2023/10/03 13:33:13;;;;;;;8.77;4.47;;;;;;;;;;5067741;28;20376;-81
2023/10/03 13:35:41;;;;;;;6.30;4.90;;;;;;;;;;5068516;28;20228;-79
2023/10/03 13:38:09;;;;;;;7.03;5.35;;;;;;;;;;5092814;28;20587;-81
2023/10/03 13:40:36;;;;;;;5.72;4.80;;;;;;;;;;5101960;27;20875;-82
2023/10/03 13:43:05;;;;;;;6.82;4.63;;;;;;;;;;5095551;28;20285;-81
2023/10/03 13:45:32;;;;;;;9.75;5.78;;;;;;;;;;5101463;27;20220;-80
2023/10/03 13:48:00;;;;;;;5.82;4.47;;;;;;;;;;5098170;28;20262;-78
2023/10/03 13:50:30;;;;;;;7.22;5.13;;;;;;;;;;5077380;28;20213;-80
2023/10/03 13:52:57;;;;;;;7.82;5.00;;;;;;;;;;5086226;28;20204;-82
2023/10/03 13:55:29;;;;;;;8.52;5.38;;;;;;;;;;5099029;28;20220;-79
2023/10/03 13:57:56;;;;;;;10.77;5.13;;;;;;;;;;5104292;27;20235;-79
2023/10/03 14:00:25;;;;;;;7.03;5.05;;;;;;;;;;5109675;28;20443;-81
2023/10/03 14:02:55;;;;;;;10.95;4.82;;;;;;;;;;5085758;28;20319;-81
2023/10/03 14:05:25;;;;;;;9.20;4.72;;;;;;;;;;5076735;28;20307;-81
2023/10/03 14:07:53;;;;;;;6.53;4.50;;;;;;;;;;5104287;28;20227;-82
2023/10/03 14:10:22;;;;;;;9.95;5.25;;;;;;;;;;5088265;28;20201;-81
2023/10/03 14:12:49;;;;;;;6.20;4.55;;;;;;;;;;5087565;28;20606;-81
2023/10/03 14:15:20;;;;;;;6.50;4.80;;;;;;;;;;5111631;28;20774;-81
2023/10/03 14:17:48;;;;;;;7.70;5.15;;;;;;;;;;5098777;28;20227;-82
2023/10/03 14:20:16;;;;;;;6.07;4.78;;;;;;;;;;5103051;27;20208;-81
2023/10/03 14:22:44;;;;;;;5.85;5.00;;;;;;;;;;5080360;28;20201;-81
2023/10/03 14:25:14;;;;;;;6.22;5.10;;;;;;;;;;5094876;28;20715;-83
2023/10/03 14:27:44;;;;;;;9.57;6.60;;;;;;;;;;5091088;27;20224;-80
2023/10/03 14:30:52;;;;;;;16.63;11.95;;;;;;;;;;5093025;27;20625;-83
2023/10/03 14:33:49;;;;;;;7.65;6.25;;;;;;;;;;5021357;28;20206;-82
2023/10/03 14:36:36;;;;;;;7.05;5.45;;;;;;;;;;5063080;28;20217;-80
2023/10/03 14:39:13;;;;;;;11.07;5.80;;;;;;;;;;5093418;28;20204;-81
2023/10/03 14:41:40;;;;;;;7.20;5.47;;;;;;;;;;5089234;28;20208;-83
2023/10/03 14:44:10;;;;;;;8.35;5.93;;;;;;;;;;5082741;28;20632;-81
2023/10/03 14:46:37;;;;;;;8.30;5.90;;;;;;;;;;5085502;28;20244;-81
2023/10/03 14:49:05;;;;;;;8.07;5.97;;;;;;;;;;5105764;27;20721;-80
2023/10/03 14:51:32;;;;;;;9.45;5.13;;;;;;;;;;5110140;27;20206;-82
2023/10/03 14:54:00;;;;;;;8.05;5.35;;;;;;;;;;5085057;28;20208;-82
2023/10/03 14:56:27;;;;;;;7.95;5.40;;;;;;;;;;5100412;27;20288;-83
2023/10/03 14:58:54;;;;;;;8.20;5.75;;;;;;;;;;5093924;28;20207;-79
2023/10/03 15:01:21;;;;;;;10.45;5.63;;;;;;;;;;5096278;28;20204;-78
2023/10/03 15:03:51;;;;;;;6.88;5.45;;;;;;;;;;5114992;27;20203;-75
2023/10/03 15:06:19;;;;;;;6.95;5.03;;;;;;;;;;5097631;28;20235;-75
2023/10/03 15:08:46;;;;;;;8.50;5.10;;;;;;;;;;5103607;28;20227;-76
2023/10/03 15:11:13;;;;;;;7.82;6.35;;;;;;;;;;5106136;27;20197;-76
2023/10/03 15:13:41;;;;;;;8.05;4.97;;;;;;;;;;5098033;28;20197;-75
2023/10/03 15:16:08;;;;;;;6.28;4.90;;;;;;;;;;5118761;27;20223;-75
2023/10/03 15:18:36;;;;;;;7.90;4.75;;;;;;;;;;5094387;28;20233;-75
2023/10/03 15:21:04;;;;;;;7.20;4.75;;;;;;;;;;5098687;28;20654;-76
2023/10/03 15:23:32;;;;;;;6.10;4.80;;;;;;;;;;5085695;28;20201;-77
2023/10/03 15:26:04;;;;;;;9.20;5.65;;;;;;;;;;5091252;28;20233;-75
2023/10/03 15:28:32;;;;;;;6.55;4.82;;;;;;;;;;5085141;28;20269;-77
2023/10/03 15:31:00;;;;;;;5.60;4.55;;;;;;;;;;5101780;28;20258;-75
2023/10/03 15:33:33;;;;;;;7.75;5.05;;;;;;;;;;5107111;27;20615;-75
2023/10/03 15:36:01;;;;;;;7.68;4.55;;;;;;;;;;5104387;27;20220;-76
2023/10/03 15:38:28;;;;;;;6.00;4.43;;;;;;;;;;5085295;28;20208;-77
2023/10/03 15:40:56;;;;;;;5.65;4.28;;;;;;;;;;5090857;28;20204;-75
2023/10/03 15:43:23;;;;;;;7.82;4.55;;;;;;;;;;5092624;28;20200;-76
2023/10/03 15:45:50;;;;;;;4.93;3.70;;;;;;;;;;5119237;27;20219;-75
2023/10/03 15:48:17;;;;;;;8.00;3.92;;;;;;;;;;5101118;28;20740;-76
2023/10/03 15:50:45;;;;;;;5.75;4.32;;;;;;;;;;5109548;27;20205;-75
2023/10/03 15:53:16;;;;;;;4.90;4.03;;;;;;;;;;5111202;28;20567;-76
2023/10/03 15:55:43;;;;;;;7.82;4.10;;;;;;;;;;5111018;28;20773;-80
2023/10/03 15:58:10;;;;;;;6.53;4.10;;;;;;;;;;5113402;27;20651;-76
2023/10/03 16:00:38;;;;;;;6.30;3.58;;;;;;;;;;5093016;27;20209;-77
2023/10/03 16:03:08;;;;;;;5.72;3.17;;;;;;;;;;5113605;27;20199;-76
2023/10/03 16:05:38;;;;;;;5.00;3.40;;;;;;;;;;5106596;28;20221;-78
2023/10/03 16:08:06;;;;;;;5.82;3.47;;;;;;;;;;5093749;28;20227;-76
2023/10/03 16:10:36;;;;;;;4.00;3.33;;;;;;;;;;5101780;28;20189;-77
2023/10/03 16:13:08;;;;;;;6.30;3.38;;;;;;;;;;5088586;28;20196;-75
2023/10/03 16:15:35;;;;;;;9.77;3.97;;;;;;;;;;5098233;28;20233;-77
2023/10/03 16:18:03;;;;;;;6.45;3.42;;;;;;;;;;5101037;27;20205;-78
2023/10/03 16:20:30;;;;;;;4.30;3.08;;;;;;;;;;5092965;28;20232;-77
2023/10/03 16:22:58;;;;;;;3.10;2.40;;;;;;;;;;5079449;28;20208;-76
2023/10/03 16:25:26;;;;;;;2.58;2.30;;;;;;;;;;5105039;27;20231;-76
2023/10/03 16:27:53;;;;;;;2.70;2.50;;;;;;;;;;5108979;27;20224;-76
2023/10/03 16:30:20;;;;;;;3.30;2.30;;;;;;;;;;5086355;28;20208;-76
2023/10/03 16:32:48;;;;;;;3.67;2.35;;;;;;;;;;5099377;27;20207;-76
2023/10/03 16:35:22;;;;;;;5.35;2.72;;;;;;;;;;5092314;28;20719;-76
2023/10/03 16:37:50;;;;;;;3.03;2.72;;;;;;;;;;5099245;27;20629;-76
2023/10/03 16:40:21;;;;;;;3.33;2.50;;;;;;;;;;5070273;28;20208;-77
2023/10/03 16:42:49;;;;;;;2.17;2.00;;;;;;;;;;5102222;27;20231;-77
2023/10/03 16:45:16;;;;;;;2.70;1.83;;;;;;;;;;5079442;28;20603;-77
2023/10/03 16:47:47;;;;;;;1.95;1.73;;;;;;;;;;5097073;27;20230;-78
2023/10/03 16:50:16;;;;;;;4.13;2.17;;;;;;;;;;5102949;27;20200;-77
2023/10/03 16:52:45;;;;;;;2.85;1.85;;;;;;;;;;5097492;27;20196;-78
2023/10/03 16:55:13;;;;;;;3.72;2.17;;;;;;;;;;5112398;27;20265;-77
2023/10/03 16:57:40;;;;;;;2.93;2.17;;;;;;;;;;5108291;27;20216;-77
2023/10/03 17:00:12;;;;;;;2.17;1.60;;;;;;;;;;5109058;27;20211;-76
2023/10/03 17:02:40;;;;;;;7.03;4.67;;;;;;;;;;5096360;28;20292;-78
2023/10/03 17:05:17;;;;;;;3.27;2.03;;;;;;;;;;5110022;28;20219;-78
2023/10/03 17:07:45;;;;;;;3.17;1.90;;;;;;;;;;5102759;28;20270;-77
2023/10/03 17:10:15;;;;;;;2.93;1.90;;;;;;;;;;5102101;27;20199;-79
2023/10/03 17:12:42;;;;;;;2.00;1.80;;;;;;;;;;5104438;27;20236;-77
2023/10/03 17:15:10;;;;;;;3.63;1.80;;;;;;;;;;5092020;28;20301;-76
2023/10/03 17:17:39;;;;;;;1.63;1.50;;;;;;;;;;5102577;27;20199;-77
2023/10/03 17:20:14;;;;;;;2.60;1.70;;;;;;;;;;5102152;27;20273;-77
2023/10/03 17:22:43;;;;;;;2.37;1.50;;;;;;;;;;5097770;28;20789;-79